createdAt,value
2022-11-16T00:02:15.332Z,211.60
2022-11-16T00:04:42.319Z,206.02
2022-11-16T00:07:09.390Z,218.00
2022-11-16T00:09:36.697Z,212.80
2022-11-16T00:12:06.697Z,200.55
2022-11-16T00:14:35.453Z,198.48
2022-11-16T00:17:02.869Z,205.60
2022-11-16T00:19:30.336Z,203.68
2022-11-16T00:21:56.891Z,191.30
2022-11-16T00:24:24.102Z,196.45
2022-11-16T00:26:54.569Z,209.75
2022-11-16T00:29:24.819Z,202.68
2022-11-16T00:31:51.992Z,197.93
2022-11-16T00:34:18.886Z,198.88
2022-11-16T00:36:46.476Z,189.32
2022-11-16T00:39:14.964Z,207.43
2022-11-16T00:42:01.030Z,205.45
2022-11-16T00:44:27.752Z,207.57
2022-11-16T00:46:54.301Z,204.60
2022-11-16T00:49:20.939Z,202.07
2022-11-16T00:51:47.486Z,215.45
2022-11-16T00:54:14.204Z,203.45
2022-11-16T00:56:41.214Z,209.40
2022-11-16T00:59:07.997Z,207.23
2022-11-16T01:01:34.721Z,205.98
2022-11-16T01:04:01.466Z,207.50
2022-11-16T01:06:28.006Z,206.07
2022-11-16T01:08:54.579Z,207.63
2022-11-16T01:11:39.921Z,209.20
2022-11-16T01:14:09.125Z,201.75
2022-11-16T01:16:35.761Z,210.38
2022-11-16T01:19:02.916Z,211.80
2022-11-16T01:21:29.627Z,204.57
2022-11-16T01:23:57.217Z,193.27
2022-11-16T01:26:24.374Z,200.57
2022-11-16T01:28:51.190Z,195.80
2022-11-16T01:31:18.006Z,189.25
2022-11-16T01:33:44.608Z,205.23
2022-11-16T01:36:14.839Z,195.30
2022-11-16T01:38:46.548Z,203.10
2022-11-16T01:41:15.727Z,194.68
2022-11-16T01:44:26.930Z,201.48
2022-11-16T01:46:53.617Z,211.25
2022-11-16T01:49:24.223Z,204.15
2022-11-16T01:51:55.559Z,206.52
2022-11-16T01:54:22.086Z,200.70
2022-11-16T01:56:52.685Z,209.10
2022-11-16T01:59:19.521Z,201.80
2022-11-16T02:01:46.032Z,204.43
2022-11-16T02:04:13.975Z,195.70
2022-11-16T02:06:46.645Z,205.30
2022-11-16T02:09:55.994Z,174.30
2022-11-16T02:12:22.658Z,168.18
2022-11-16T02:15:03.573Z,167.88
2022-11-16T02:17:47.662Z,169.20
2022-11-16T02:20:50.012Z,174.73
2022-11-16T02:24:13.797Z,165.55
2022-11-16T02:26:55.316Z,159.60
2022-11-16T02:29:54.578Z,139.10
2022-11-16T02:32:28.704Z,127.30
2022-11-16T02:35:20.057Z,122.82
2022-11-16T02:37:55.473Z,126.70
2022-11-16T02:40:26.740Z,131.43
2022-11-16T02:43:01.224Z,133.43
2022-11-16T02:45:32.758Z,123.15
2022-11-16T02:48:08.724Z,126.88
2022-11-16T02:50:37.165Z,138.68
2022-11-16T02:53:04.171Z,147.98
2022-11-16T02:55:34.101Z,161.93
2022-11-16T02:58:07.109Z,173.95
2022-11-16T03:01:10.170Z,198.93
2022-11-16T03:03:47.542Z,177.52
2022-11-16T03:06:20.941Z,175.15
2022-11-16T03:09:05.926Z,139.45
2022-11-16T03:11:54.931Z,152.57
2022-11-16T03:14:25.356Z,155.68
2022-11-16T03:17:00.033Z,150.43
2022-11-16T03:19:34.858Z,195.82
2022-11-16T03:22:13.656Z,226.10
2022-11-16T03:24:41.338Z,152.07
2022-11-16T03:27:45.642Z,192.40
2022-11-16T03:30:19.142Z,153.77
2022-11-16T03:33:29.994Z,226.98
2022-11-16T03:35:56.517Z,326.45
2022-11-16T03:38:26.159Z,195.73
2022-11-16T03:40:56.153Z,258.52
2022-11-16T03:43:26.670Z,441.50
2022-11-16T03:45:54.250Z,408.55
2022-11-16T03:48:20.856Z,248.52
2022-11-16T03:50:47.673Z,273.52
2022-11-16T03:53:14.414Z,215.50
2022-11-16T03:55:43.467Z,276.02
2022-11-16T03:58:13.668Z,231.75
2022-11-16T04:00:40.291Z,182.60
2022-11-16T04:03:07.107Z,163.57
2022-11-16T04:05:52.391Z,174.23
2022-11-16T04:08:37.430Z,200.90
2022-11-16T04:11:22.672Z,200.30
2022-11-16T04:14:09.485Z,168.45
2022-11-16T04:16:54.827Z,190.30
2022-11-16T04:19:39.778Z,215.02
2022-11-16T04:22:34.421Z,179.27
2022-11-16T04:25:08.300Z,156.85
2022-11-16T04:27:53.714Z,198.75
2022-11-16T04:30:20.450Z,178.60
2022-11-16T04:33:06.025Z,176.60
2022-11-16T04:35:51.339Z,169.95
2022-11-16T04:38:17.913Z,168.77
2022-11-16T04:40:44.641Z,167.35
2022-11-16T04:43:11.322Z,154.85
2022-11-16T04:45:56.380Z,162.00
2022-11-16T04:48:22.957Z,167.63
2022-11-16T04:50:49.522Z,182.60
2022-11-16T04:53:16.555Z,198.35
2022-11-16T04:55:43.215Z,180.18
2022-11-16T04:58:09.795Z,165.77
2022-11-16T05:00:36.454Z,170.00
2022-11-16T05:03:04.954Z,165.43
2022-11-16T05:05:31.654Z,153.68
2022-11-16T05:07:58.342Z,152.90
2022-11-16T05:10:24.948Z,186.00
2022-11-16T05:12:51.551Z,168.70
2022-11-16T05:15:19.816Z,161.75
2022-11-16T05:17:47.446Z,162.75
2022-11-16T05:20:33.504Z,160.45
2022-11-16T05:23:00.290Z,164.35
2022-11-16T05:25:26.814Z,159.68
2022-11-16T05:27:53.779Z,164.80
2022-11-16T05:30:20.524Z,189.50
2022-11-16T05:32:47.303Z,166.05
2022-11-16T05:35:14.072Z,174.80
2022-11-16T05:37:40.693Z,154.25
2022-11-16T05:40:07.810Z,160.32
2022-11-16T05:42:34.582Z,168.55
2022-11-16T05:45:01.494Z,159.50
2022-11-16T05:47:28.173Z,157.15
2022-11-16T05:49:54.677Z,148.18
2022-11-16T05:52:21.348Z,173.10
2022-11-16T05:54:47.981Z,175.98
2022-11-16T05:57:15.431Z,153.13
2022-11-16T05:59:42.550Z,140.63
2022-11-16T06:02:09.081Z,162.88
2022-11-16T06:04:35.654Z,185.52
2022-11-16T06:07:02.450Z,164.10
2022-11-16T06:09:29.004Z,164.52
2022-11-16T06:11:55.585Z,169.38
2022-11-16T06:14:22.160Z,173.23
2022-11-16T06:16:48.765Z,169.70
2022-11-16T06:19:15.431Z,169.95
2022-11-16T06:21:42.064Z,159.07
2022-11-16T06:24:09.627Z,150.20
2022-11-16T06:26:37.218Z,144.85
2022-11-16T06:29:04.592Z,140.63
2022-11-16T06:31:31.549Z,130.55
2022-11-16T06:33:58.145Z,140.38
2022-11-16T06:36:24.804Z,128.07
2022-11-16T06:38:51.551Z,142.38
2022-11-16T06:41:18.349Z,125.78
2022-11-16T06:43:45.043Z,121.85
2022-11-16T06:46:11.891Z,121.40
2022-11-16T06:48:38.689Z,125.95
2022-11-16T06:51:05.580Z,119.10
2022-11-16T06:53:32.292Z,109.55
2022-11-16T06:56:06.307Z,111.95
2022-11-16T06:58:33.939Z,116.13
2022-11-16T07:01:11.717Z,111.43
2022-11-16T07:03:38.544Z,114.22
2022-11-16T07:06:09.866Z,111.03
2022-11-16T07:08:36.950Z,107.30
2022-11-16T07:11:05.324Z,110.80
2022-11-16T07:13:33.560Z,105.45
2022-11-16T07:16:11.704Z,119.70
2022-11-16T07:18:41.454Z,117.90
2022-11-16T07:21:16.819Z,126.15
2022-11-16T07:23:44.165Z,121.97
2022-11-16T07:26:11.413Z,114.65
2022-11-16T07:28:40.988Z,123.22
2022-11-16T07:31:13.992Z,115.88
2022-11-16T07:33:41.246Z,113.53
2022-11-16T07:36:13.273Z,119.05
2022-11-16T07:38:39.929Z,116.47
2022-11-16T07:41:09.413Z,108.82
2022-11-16T07:43:36.079Z,117.68
2022-11-16T07:46:45.311Z,115.63
2022-11-16T07:49:11.072Z,129.10
2022-11-16T07:51:38.078Z,117.43
2022-11-16T07:54:04.865Z,105.13
2022-11-16T07:56:31.450Z,104.85
2022-11-16T07:58:59.418Z,101.88
2022-11-16T08:01:26.110Z,108.90
2022-11-16T08:03:54.023Z,112.13
2022-11-16T08:06:25.062Z,107.43
2022-11-16T08:08:57.842Z,110.93
2022-11-16T08:11:25.314Z,130.85
2022-11-16T08:13:52.137Z,110.93
2022-11-16T08:16:20.914Z,116.25
2022-11-16T08:18:47.835Z,112.93
2022-11-16T08:21:17.085Z,109.10
2022-11-16T08:23:45.246Z,105.93
2022-11-16T08:26:17.138Z,110.05
2022-11-16T08:28:45.964Z,96.75
2022-11-16T08:31:18.610Z,95.88
2022-11-16T08:33:45.475Z,104.05
2022-11-16T08:36:17.355Z,102.80
2022-11-16T08:38:45.247Z,102.50
2022-11-16T08:41:12.453Z,106.90
2022-11-16T08:43:42.249Z,92.32
2022-11-16T08:46:09.893Z,86.15
2022-11-16T08:48:37.912Z,83.72
2022-11-16T08:53:59.040Z,91.18
2022-11-16T08:56:27.472Z,89.93
2022-11-16T08:58:58.374Z,88.50
2022-11-16T09:01:28.124Z,84.50
2022-11-16T09:03:55.192Z,87.18
2022-11-16T09:06:23.545Z,80.35
2022-11-16T09:08:50.451Z,75.88
2022-11-16T09:11:20.001Z,80.97
2022-11-16T09:13:48.710Z,82.30
2022-11-16T09:16:16.938Z,85.35
2022-11-16T09:18:46.448Z,82.95
2022-11-16T09:21:20.779Z,84.88
2022-11-16T09:23:48.439Z,73.72
2022-11-16T09:26:15.689Z,72.78
2022-11-16T09:28:42.651Z,72.97
2022-11-16T09:31:10.273Z,73.43
2022-11-16T09:33:37.994Z,79.35
2022-11-16T09:36:09.529Z,70.60
2022-11-16T09:39:13.865Z,72.60
2022-11-16T09:41:54.813Z,68.68
2022-11-16T09:44:51.695Z,77.00
2022-11-16T09:47:22.009Z,73.80
2022-11-16T09:49:58.093Z,75.53
2022-11-16T09:55:38.114Z,72.82
2022-11-16T09:58:14.640Z,73.78
2022-11-16T10:00:49.658Z,75.82
2022-11-16T10:03:16.557Z,74.03
2022-11-16T10:05:48.910Z,70.10
2022-11-16T10:08:43.242Z,73.72
2022-11-16T10:11:36.220Z,70.30
2022-11-16T10:14:21.587Z,69.38
2022-11-16T10:16:58.368Z,73.30
2022-11-16T10:19:57.505Z,76.40
2022-11-16T10:22:45.083Z,73.68
2022-11-16T10:25:26.145Z,72.25
2022-11-16T10:28:27.668Z,70.70
2022-11-16T10:31:10.573Z,70.60
2022-11-16T10:33:40.357Z,70.80
2022-11-16T10:36:14.108Z,68.80
2022-11-16T10:38:42.469Z,71.70
2022-11-16T10:41:37.471Z,75.68
2022-11-16T10:44:24.866Z,66.63
2022-11-16T10:47:12.431Z,70.85
2022-11-16T10:49:59.613Z,65.50
2022-11-16T10:52:26.625Z,63.58
2022-11-16T10:54:53.371Z,69.65
2022-11-16T10:57:20.278Z,70.10
2022-11-16T10:59:50.158Z,70.82
2022-11-16T11:02:37.375Z,58.05
2022-11-16T11:05:06.539Z,57.55
2022-11-16T11:07:36.121Z,55.83
2022-11-16T11:10:02.770Z,52.65
2022-11-16T11:12:38.520Z,55.60
2022-11-16T11:15:11.078Z,58.80
2022-11-16T11:17:40.707Z,54.90
2022-11-16T11:20:21.213Z,53.47
2022-11-16T11:22:56.781Z,53.88
2022-11-16T11:25:27.416Z,54.85
2022-11-16T11:28:19.442Z,48.42
2022-11-16T11:31:11.705Z,53.92
2022-11-16T11:33:44.191Z,52.50
2022-11-16T11:36:26.450Z,50.85
2022-11-16T11:38:56.139Z,49.80
2022-11-16T11:41:23.381Z,50.15
2022-11-16T11:44:06.586Z,51.97
2022-11-16T11:47:18.177Z,50.05
2022-11-16T11:49:33.927Z,52.22
2022-11-16T11:52:11.989Z,54.13
2022-11-16T11:54:46.098Z,50.45
2022-11-16T11:57:20.766Z,48.22
2022-11-16T11:59:48.339Z,51.72
2022-11-16T12:02:24.637Z,55.95
2022-11-16T12:05:23.382Z,52.47
2022-11-16T12:08:21.944Z,49.30
2022-11-16T12:11:03.409Z,52.55
2022-11-16T12:13:48.314Z,48.22
2022-11-16T12:16:35.004Z,52.50
2022-11-16T12:19:17.341Z,49.00
2022-11-16T12:21:56.359Z,47.00
2022-11-16T12:24:39.456Z,42.60
2022-11-16T12:27:27.470Z,56.15
2022-11-16T12:30:19.151Z,47.13
2022-11-16T12:33:15.134Z,48.75
2022-11-16T12:35:49.084Z,50.95
2022-11-16T12:38:23.095Z,50.17
2022-11-16T12:41:08.477Z,47.55
2022-11-16T12:43:59.062Z,48.38
2022-11-16T12:46:37.753Z,48.08
2022-11-16T12:49:29.636Z,55.10
2022-11-16T12:51:56.257Z,50.95
2022-11-16T12:55:24.231Z,46.83
2022-11-16T12:58:00.609Z,48.20
2022-11-16T13:00:29.834Z,47.78
2022-11-16T13:03:15.388Z,49.03
2022-11-16T13:05:56.922Z,51.47
2022-11-16T13:08:29.381Z,51.80
2022-11-16T13:11:02.760Z,49.13
2022-11-16T13:13:36.417Z,51.33
2022-11-16T13:16:05.639Z,49.35
2022-11-16T13:18:34.830Z,54.13
2022-11-16T13:21:05.490Z,58.80
2022-11-16T13:23:32.336Z,56.60
2022-11-16T13:26:10.392Z,57.72
2022-11-16T13:28:49.302Z,55.50
2022-11-16T13:31:27.785Z,61.10
2022-11-16T13:34:03.473Z,51.15
2022-11-16T13:36:45.224Z,45.40
2022-11-16T13:39:20.567Z,48.50
2022-11-16T13:42:07.326Z,45.05
2022-11-16T13:44:34.647Z,46.35
2022-11-16T13:47:05.008Z,45.40
2022-11-16T13:49:41.018Z,45.55
2022-11-16T13:52:23.752Z,45.20
2022-11-16T13:54:55.662Z,48.25
2022-11-16T13:57:33.439Z,45.60
2022-11-16T14:00:03.013Z,43.75
2022-11-16T14:02:33.674Z,40.70
2022-11-16T14:05:05.100Z,38.05
2022-11-16T14:07:31.700Z,43.10
2022-11-16T14:09:59.464Z,47.35
2022-11-16T14:12:38.273Z,43.05
2022-11-16T14:15:19.194Z,43.13
2022-11-16T14:17:50.879Z,40.65
2022-11-16T14:20:37.766Z,39.60
2022-11-16T14:23:13.424Z,41.30
2022-11-16T14:26:03.214Z,43.25
2022-11-16T14:29:07.471Z,41.53
2022-11-16T14:31:56.081Z,41.70
2022-11-16T14:34:25.562Z,40.92
2022-11-16T14:36:53.140Z,46.75
2022-11-16T14:39:39.034Z,49.78
2022-11-16T14:42:27.376Z,44.15
2022-11-16T14:45:02.595Z,42.15
2022-11-16T14:47:32.536Z,44.20
2022-11-16T14:49:59.233Z,47.42
2022-11-16T14:52:39.930Z,43.67
2022-11-16T14:55:09.000Z,48.47
2022-11-16T14:57:36.069Z,55.83
2022-11-16T15:00:18.652Z,50.08
2022-11-16T15:02:51.895Z,49.08
2022-11-16T15:05:22.729Z,46.45
2022-11-16T15:07:52.546Z,51.70
2022-11-16T15:10:25.817Z,49.25
2022-11-16T15:12:55.045Z,52.85
2022-11-16T15:15:26.855Z,49.67
2022-11-16T15:18:07.683Z,48.47
2022-11-16T15:20:37.685Z,49.72
2022-11-16T15:23:12.862Z,51.90
2022-11-16T15:26:05.831Z,50.50
2022-11-16T15:28:34.026Z,51.03
2022-11-16T15:31:05.936Z,44.38
2022-11-16T15:33:36.883Z,44.75
2022-11-16T15:36:24.934Z,50.75
2022-11-16T15:38:55.285Z,50.90
2022-11-16T15:41:23.822Z,52.85
2022-11-16T15:44:13.460Z,52.92
2022-11-16T15:46:43.115Z,49.38
2022-11-16T15:49:32.272Z,53.05
2022-11-16T15:51:59.900Z,53.22
2022-11-16T15:54:29.550Z,55.85
2022-11-16T15:57:05.714Z,50.45
2022-11-16T15:59:34.698Z,54.05
2022-11-16T16:02:02.137Z,53.10
2022-11-16T16:04:29.412Z,50.35
2022-11-16T16:06:58.040Z,60.47
2022-11-16T16:10:10.843Z,53.72
2022-11-16T16:12:47.929Z,51.67
2022-11-16T16:15:25.229Z,52.60
2022-11-16T16:17:53.935Z,56.15
2022-11-16T16:20:24.049Z,56.03
2022-11-16T16:22:51.897Z,51.90
2022-11-16T16:25:33.429Z,55.80
2022-11-16T16:28:00.522Z,53.78
2022-11-16T16:30:29.369Z,59.65
2022-11-16T16:32:56.310Z,53.42
2022-11-16T16:35:25.129Z,63.10
2022-11-16T16:37:57.686Z,58.33
2022-11-16T16:40:24.722Z,62.08
2022-11-16T16:42:52.334Z,59.65
2022-11-16T16:45:22.021Z,56.60
2022-11-16T16:47:49.134Z,69.93
2022-11-16T16:50:16.598Z,73.40
2022-11-16T16:52:43.270Z,100.75
2022-11-16T16:55:09.970Z,65.97
2022-11-16T16:57:36.499Z,63.60
2022-11-16T17:00:04.188Z,72.45
2022-11-16T17:02:30.913Z,72.07
2022-11-16T17:04:57.566Z,77.68
2022-11-16T17:07:24.208Z,76.65
2022-11-16T17:09:50.928Z,74.80
2022-11-16T17:12:17.510Z,70.32
2022-11-16T17:14:51.279Z,74.82
2022-11-16T17:17:24.487Z,273.98
2022-11-16T17:19:51.918Z,66.75
2022-11-16T17:22:19.661Z,65.78
2022-11-16T17:24:46.709Z,68.95
2022-11-16T17:27:13.789Z,69.88
2022-11-16T17:29:40.601Z,66.75
2022-11-16T17:32:07.328Z,68.68
2022-11-16T17:34:34.017Z,68.63
2022-11-16T17:37:00.694Z,72.03
2022-11-16T17:39:27.214Z,75.32
2022-11-16T17:41:53.836Z,67.63
2022-11-16T17:44:22.175Z,71.72
2022-11-16T17:46:49.396Z,72.88
2022-11-16T17:49:16.079Z,74.97
2022-11-16T17:51:42.672Z,69.75
2022-11-16T17:54:09.473Z,80.85
2022-11-16T17:56:36.078Z,72.85
2022-11-16T17:59:02.656Z,72.10
2022-11-16T18:01:29.714Z,67.90
2022-11-16T18:03:56.340Z,73.63
2022-11-16T18:06:25.418Z,77.32
2022-11-16T18:08:52.804Z,81.22
2022-11-16T18:11:21.921Z,76.72
2022-11-16T18:13:52.980Z,76.10
2022-11-16T18:16:21.400Z,71.20
2022-11-16T18:18:49.005Z,78.75
2022-11-16T18:21:20.592Z,74.53
2022-11-16T18:23:48.186Z,81.07
2022-11-16T18:26:17.321Z,80.00
2022-11-16T18:28:47.732Z,77.53
2022-11-16T18:31:17.791Z,79.05
2022-11-16T18:33:44.723Z,71.03
2022-11-16T18:36:12.805Z,68.60
2022-11-16T18:38:39.796Z,75.60
2022-11-16T18:41:13.840Z,68.45
2022-11-16T18:43:55.530Z,74.82
2022-11-16T18:46:27.580Z,66.93
2022-11-16T18:48:55.069Z,70.38
2022-11-16T18:51:22.812Z,71.28
2022-11-16T18:53:50.027Z,71.22
2022-11-16T18:56:17.710Z,74.18
2022-11-16T18:58:52.906Z,68.95
2022-11-16T19:01:23.557Z,76.75
2022-11-16T19:03:52.063Z,79.43
2022-11-16T19:06:19.269Z,65.93
2022-11-16T19:08:52.144Z,67.47
2022-11-16T19:11:22.830Z,67.18
2022-11-16T19:13:56.417Z,57.92
2022-11-16T19:16:24.199Z,65.63
2022-11-16T19:18:50.768Z,61.15
2022-11-16T19:21:21.973Z,67.57
2022-11-16T19:23:53.412Z,60.95
2022-11-16T19:26:22.755Z,60.00
2022-11-16T19:28:51.070Z,60.38
2022-11-16T19:31:29.070Z,73.30
2022-11-16T19:33:58.087Z,62.70
2022-11-16T19:36:26.202Z,69.43
2022-11-16T19:38:53.176Z,64.97
2022-11-16T19:41:23.224Z,62.53
2022-11-16T19:43:52.803Z,69.35
2022-11-16T19:46:24.499Z,69.75
2022-11-16T19:48:51.862Z,74.35
2022-11-16T19:51:24.005Z,69.53
2022-11-16T19:53:50.911Z,68.20
2022-11-16T19:56:19.965Z,67.15
2022-11-16T19:58:46.953Z,71.05
2022-11-16T20:01:18.903Z,71.70
2022-11-16T20:03:46.757Z,70.97
2022-11-16T20:06:34.709Z,71.13
2022-11-16T20:09:08.578Z,68.88
2022-11-16T20:11:37.612Z,70.28
2022-11-16T20:14:08.275Z,78.75
2022-11-16T20:16:40.689Z,66.93
2022-11-16T20:19:09.889Z,76.70
2022-11-16T20:21:41.606Z,78.53
2022-11-16T20:24:12.048Z,78.28
2022-11-16T20:26:43.851Z,78.85
2022-11-16T20:29:15.021Z,70.00
2022-11-16T20:31:44.346Z,74.10
2022-11-16T20:34:17.654Z,74.68
2022-11-16T20:36:46.603Z,76.35
2022-11-16T20:39:14.722Z,75.95
2022-11-16T20:41:42.734Z,72.10
2022-11-16T20:44:16.375Z,71.88
2022-11-16T20:46:45.138Z,73.40
2022-11-16T20:49:11.987Z,75.25
2022-11-16T20:51:38.670Z,71.75
2022-11-16T20:54:05.618Z,71.95
2022-11-16T20:56:32.435Z,72.45
2022-11-16T20:58:59.629Z,70.60
2022-11-16T21:01:33.299Z,71.60
2022-11-16T21:04:03.166Z,75.35
2022-11-16T21:06:30.483Z,75.38
2022-11-16T21:08:57.307Z,70.18
2022-11-16T21:11:26.427Z,70.03
2022-11-16T21:14:11.472Z,68.18
2022-11-16T21:16:38.819Z,74.63
2022-11-16T21:19:06.171Z,68.47
2022-11-16T21:21:32.954Z,67.85
2022-11-16T21:23:59.819Z,69.65
2022-11-16T21:26:31.420Z,66.43
2022-11-16T21:28:59.137Z,69.32
2022-11-16T21:31:28.026Z,64.68
2022-11-16T21:33:54.942Z,56.45
2022-11-16T21:36:24.124Z,57.20
2022-11-16T21:38:51.819Z,59.42
2022-11-16T21:41:20.754Z,55.58
2022-11-16T21:43:47.711Z,50.78
2022-11-16T21:46:16.772Z,46.42
2022-11-16T21:48:43.995Z,56.72
2022-11-16T21:51:13.130Z,48.70
2022-11-16T21:53:40.165Z,47.72
2022-11-16T21:56:11.561Z,47.88
2022-11-16T21:58:39.511Z,48.60
2022-11-16T22:01:06.557Z,46.80
2022-11-16T22:03:33.564Z,46.60
2022-11-16T22:06:21.398Z,48.38
2022-11-16T22:08:48.708Z,47.65
2022-11-16T22:11:16.441Z,44.75
2022-11-16T22:13:43.845Z,48.30
2022-11-16T22:16:13.522Z,42.40
2022-11-16T22:18:40.226Z,47.58
2022-11-16T22:21:07.693Z,42.92
2022-11-16T22:23:35.093Z,44.90
2022-11-16T22:26:10.657Z,43.67
2022-11-16T22:28:37.904Z,50.38
2022-11-16T22:31:12.665Z,43.63
2022-11-16T22:33:39.861Z,47.60
2022-11-16T22:36:10.326Z,46.92
2022-11-16T22:38:37.495Z,43.58
2022-11-16T22:41:04.786Z,44.03
2022-11-16T22:43:32.305Z,40.75
2022-11-16T22:46:01.306Z,46.45
2022-11-16T22:48:37.038Z,46.20
2022-11-16T22:51:18.606Z,43.85
2022-11-16T22:53:45.208Z,42.92
2022-11-16T22:56:12.763Z,41.53
2022-11-16T22:58:41.010Z,43.08
2022-11-16T23:01:09.126Z,45.72
2022-11-16T23:03:36.632Z,44.17
2022-11-16T23:06:05.125Z,44.50
2022-11-16T23:08:32.289Z,40.03
2022-11-16T23:11:27.603Z,39.08
2022-11-16T23:14:13.532Z,40.78
2022-11-16T23:16:41.024Z,44.28
2022-11-16T23:19:28.476Z,42.13
2022-11-16T23:22:14.263Z,42.63
2022-11-16T23:24:59.851Z,41.55
2022-11-16T23:27:33.342Z,46.90
2022-11-16T23:30:02.115Z,46.33
2022-11-16T23:32:29.519Z,42.85
2022-11-16T23:34:57.262Z,42.05
2022-11-16T23:37:24.282Z,40.33
2022-11-16T23:39:50.992Z,47.20
2022-11-16T23:42:36.255Z,44.85
2022-11-16T23:45:03.603Z,47.65
2022-11-16T23:47:30.340Z,47.25
2022-11-16T23:49:56.889Z,50.35
2022-11-16T23:52:23.486Z,50.42
2022-11-16T23:54:50.168Z,49.53
2022-11-16T23:57:16.886Z,51.38
2022-11-16T23:59:43.405Z,49.60
